sensor_id;sensor_type;location;lat;lon;timestamp;temperature;humidity
33207;DHT22;19565;46.602;11.534;2022-09-01T00:00:23;18.60;99.90
33207;DHT22;19565;46.602;11.534;2022-09-01T00:02:55;18.50;99.90
33207;DHT22;19565;46.602;11.534;2022-09-01T00:05:23;18.40;99.90
33207;DHT22;19565;46.602;11.534;2022-09-01T00:07:51;18.50;99.90
33207;DHT22;19565;46.602;11.534;2022-09-01T00:10:19;18.60;99.90
33207;DHT22;19565;46.602;11.534;2022-09-01T00:12:47;18.40;99.90
33207;DHT22;19565;46.602;11.534;2022-09-01T00:15:16;18.50;99.90
33207;DHT22;19565;46.602;11.534;2022-09-01T00:17:46;18.60;99.90
33207;DHT22;19565;46.602;11.534;2022-09-01T00:20:14;18.60;99.90
33207;DHT22;19565;46.602;11.534;2022-09-01T00:22:47;18.50;99.90
33207;DHT22;19565;46.602;11.534;2022-09-01T00:25:15;18.50;99.90
33207;DHT22;19565;46.602;11.534;2022-09-01T00:27:47;18.50;99.90
33207;DHT22;19565;46.602;11.534;2022-09-01T00:30:15;18.50;99.90
33207;DHT22;19565;46.602;11.534;2022-09-01T00:32:45;18.50;99.90
33207;DHT22;19565;46.602;11.534;2022-09-01T00:35:14;18.40;99.90
33207;DHT22;19565;46.602;11.534;2022-09-01T00:37:43;18.40;99.90
33207;DHT22;19565;46.602;11.534;2022-09-01T00:40:12;18.30;99.90
33207;DHT22;19565;46.602;11.534;2022-09-01T00:42:41;18.40;99.90
33207;DHT22;19565;46.602;11.534;2022-09-01T00:45:10;18.40;99.90
33207;DHT22;19565;46.602;11.534;2022-09-01T00:47:41;18.40;99.90
33207;DHT22;19565;46.602;11.534;2022-09-01T00:50:12;18.20;99.90
33207;DHT22;19565;46.602;11.534;2022-09-01T00:52:43;18.20;99.90
33207;DHT22;19565;46.602;11.534;2022-09-01T00:55:16;18.30;99.90
33207;DHT22;19565;46.602;11.534;2022-09-01T00:57:46;18.30;99.90
33207;DHT22;19565;46.602;11.534;2022-09-01T01:00:17;18.30;99.90
33207;DHT22;19565;46.602;11.534;2022-09-01T01:02:48;18.30;99.90
33207;DHT22;19565;46.602;11.534;2022-09-01T01:05:25;18.30;99.90
33207;DHT22;19565;46.602;11.534;2022-09-01T01:07:56;18.30;99.90
33207;DHT22;19565;46.602;11.534;2022-09-01T01:10:25;18.30;99.90
33207;DHT22;19565;46.602;11.534;2022-09-01T01:12:55;18.30;99.90
33207;DHT22;19565;46.602;11.534;2022-09-01T01:15:27;18.30;99.90
33207;DHT22;19565;46.602;11.534;2022-09-01T01:17:56;18.30;99.90
33207;DHT22;19565;46.602;11.534;2022-09-01T01:20:27;18.30;99.90
33207;DHT22;19565;46.602;11.534;2022-09-01T01:23:20;18.30;99.90
33207;DHT22;19565;46.602;11.534;2022-09-01T01:25:56;18.20;99.90
33207;DHT22;19565;46.602;11.534;2022-09-01T01:28:26;18.20;99.90
33207;DHT22;19565;46.602;11.534;2022-09-01T01:30:59;18.20;99.90
33207;DHT22;19565;46.602;11.534;2022-09-01T01:33:30;18.10;99.90
33207;DHT22;19565;46.602;11.534;2022-09-01T01:35:59;18.00;99.90
33207;DHT22;19565;46.602;11.534;2022-09-01T01:38:27;17.70;99.90
33207;DHT22;19565;46.602;11.534;2022-09-01T01:40:57;17.70;99.90
33207;DHT22;19565;46.602;11.534;2022-09-01T01:43:25;17.90;99.90
33207;DHT22;19565;46.602;11.534;2022-09-01T01:45:56;18.00;99.90
33207;DHT22;19565;46.602;11.534;2022-09-01T01:48:29;18.00;99.90
33207;DHT22;19565;46.602;11.534;2022-09-01T01:51:01;18.00;99.90
33207;DHT22;19565;46.602;11.534;2022-09-01T01:53:32;17.90;99.90
33207;DHT22;19565;46.602;11.534;2022-09-01T01:56:02;17.90;99.90
33207;DHT22;19565;46.602;11.534;2022-09-01T01:58:32;17.90;99.90
33207;DHT22;19565;46.602;11.534;2022-09-01T02:01:00;17.80;99.90
33207;DHT22;19565;46.602;11.534;2022-09-01T02:03:32;17.70;99.90
33207;DHT22;19565;46.602;11.534;2022-09-01T02:06:05;17.80;99.90
33207;DHT22;19565;46.602;11.534;2022-09-01T02:08:37;17.70;99.90
33207;DHT22;19565;46.602;11.534;2022-09-01T02:11:07;17.30;99.90
33207;DHT22;19565;46.602;11.534;2022-09-01T02:13:35;16.90;99.90
33207;DHT22;19565;46.602;11.534;2022-09-01T02:16:05;16.70;99.90
33207;DHT22;19565;46.602;11.534;2022-09-01T02:18:40;16.60;99.90
33207;DHT22;19565;46.602;11.534;2022-09-01T02:21:10;16.60;99.90
33207;DHT22;19565;46.602;11.534;2022-09-01T02:23:45;16.60;99.90
33207;DHT22;19565;46.602;11.534;2022-09-01T02:26:16;16.70;99.90
33207;DHT22;19565;46.602;11.534;2022-09-01T02:28:48;17.00;99.90
33207;DHT22;19565;46.602;11.534;2022-09-01T02:31:22;17.20;99.90
33207;DHT22;19565;46.602;11.534;2022-09-01T02:33:50;17.00;99.90
33207;DHT22;19565;46.602;11.534;2022-09-01T02:36:21;17.00;99.90
33207;DHT22;19565;46.602;11.534;2022-09-01T02:38:51;17.30;99.90
33207;DHT22;19565;46.602;11.534;2022-09-01T02:41:24;17.40;99.90
33207;DHT22;19565;46.602;11.534;2022-09-01T02:43:53;17.60;99.90
33207;DHT22;19565;46.602;11.534;2022-09-01T02:46:21;17.60;99.90
33207;DHT22;19565;46.602;11.534;2022-09-01T02:48:50;17.40;99.90
33207;DHT22;19565;46.602;11.534;2022-09-01T02:51:21;17.10;99.90
33207;DHT22;19565;46.602;11.534;2022-09-01T02:53:51;17.30;99.90
33207;DHT22;19565;46.602;11.534;2022-09-01T02:56:21;17.50;99.90
33207;DHT22;19565;46.602;11.534;2022-09-01T02:58:53;17.60;99.90
33207;DHT22;19565;46.602;11.534;2022-09-01T03:01:22;17.70;99.90
33207;DHT22;19565;46.602;11.534;2022-09-01T03:03:54;17.70;99.90
33207;DHT22;19565;46.602;11.534;2022-09-01T03:06:23;17.60;99.90
33207;DHT22;19565;46.602;11.534;2022-09-01T03:08:54;17.70;99.90
33207;DHT22;19565;46.602;11.534;2022-09-01T03:11:26;17.70;99.90
33207;DHT22;19565;46.602;11.534;2022-09-01T03:13:56;17.80;99.90
33207;DHT22;19565;46.602;11.534;2022-09-01T03:16:24;17.80;99.90
33207;DHT22;19565;46.602;11.534;2022-09-01T03:18:53;17.80;99.90
33207;DHT22;19565;46.602;11.534;2022-09-01T03:21:23;17.80;99.90
33207;DHT22;19565;46.602;11.534;2022-09-01T03:23:51;17.80;99.90
33207;DHT22;19565;46.602;11.534;2022-09-01T03:26:20;17.70;99.90
33207;DHT22;19565;46.602;11.534;2022-09-01T03:28:49;17.60;99.90
33207;DHT22;19565;46.602;11.534;2022-09-01T03:31:19;17.30;99.90
33207;DHT22;19565;46.602;11.534;2022-09-01T03:33:48;17.40;99.90
33207;DHT22;19565;46.602;11.534;2022-09-01T03:36:16;17.50;99.90
33207;DHT22;19565;46.602;11.534;2022-09-01T03:38:46;17.60;99.90
33207;DHT22;19565;46.602;11.534;2022-09-01T03:41:17;17.70;99.90
33207;DHT22;19565;46.602;11.534;2022-09-01T03:43:48;17.60;99.90
33207;DHT22;19565;46.602;11.534;2022-09-01T03:46:18;17.70;99.90
33207;DHT22;19565;46.602;11.534;2022-09-01T03:48:50;17.70;99.90
33207;DHT22;19565;46.602;11.534;2022-09-01T03:51:18;17.70;99.90
33207;DHT22;19565;46.602;11.534;2022-09-01T03:53:49;17.70;99.90
33207;DHT22;19565;46.602;11.534;2022-09-01T03:56:20;17.60;99.90
33207;DHT22;19565;46.602;11.534;2022-09-01T03:58:50;17.20;99.90
33207;DHT22;19565;46.602;11.534;2022-09-01T04:01:20;17.30;99.90
33207;DHT22;19565;46.602;11.534;2022-09-01T04:03:49;17.40;99.90
33207;DHT22;19565;46.602;11.534;2022-09-01T04:06:19;17.50;99.90
33207;DHT22;19565;46.602;11.534;2022-09-01T04:08:51;17.50;99.90
33207;DHT22;19565;46.602;11.534;2022-09-01T04:11:22;17.60;99.90
33207;DHT22;19565;46.602;11.534;2022-09-01T04:13:51;17.60;99.90
33207;DHT22;19565;46.602;11.534;2022-09-01T04:16:23;17.60;99.90
33207;DHT22;19565;46.602;11.534;2022-09-01T04:19:09;17.40;99.90
33207;DHT22;19565;46.602;11.534;2022-09-01T04:21:47;17.40;99.90
33207;DHT22;19565;46.602;11.534;2022-09-01T04:24:17;17.50;99.90
33207;DHT22;19565;46.602;11.534;2022-09-01T04:26:46;17.60;99.90
33207;DHT22;19565;46.602;11.534;2022-09-01T04:29:16;17.50;99.90
33207;DHT22;19565;46.602;11.534;2022-09-01T04:31:51;17.60;99.90
33207;DHT22;19565;46.602;11.534;2022-09-01T04:34:20;17.50;99.90
33207;DHT22;19565;46.602;11.534;2022-09-01T04:36:50;17.50;99.90
33207;DHT22;19565;46.602;11.534;2022-09-01T04:39:22;17.50;99.90
33207;DHT22;19565;46.602;11.534;2022-09-01T04:41:51;17.20;99.90
33207;DHT22;19565;46.602;11.534;2022-09-01T04:44:20;17.00;99.90
33207;DHT22;19565;46.602;11.534;2022-09-01T04:46:48;17.20;99.90
33207;DHT22;19565;46.602;11.534;2022-09-01T04:49:20;17.30;99.90
33207;DHT22;19565;46.602;11.534;2022-09-01T04:51:53;17.40;99.90
33207;DHT22;19565;46.602;11.534;2022-09-01T04:54:21;17.40;99.90
33207;DHT22;19565;46.602;11.534;2022-09-01T04:56:51;17.50;99.90
33207;DHT22;19565;46.602;11.534;2022-09-01T04:59:23;17.40;99.90
33207;DHT22;19565;46.602;11.534;2022-09-01T05:01:53;17.10;99.90
33207;DHT22;19565;46.602;11.534;2022-09-01T05:04:26;17.00;99.90
33207;DHT22;19565;46.602;11.534;2022-09-01T05:06:56;17.00;99.90
33207;DHT22;19565;46.602;11.534;2022-09-01T05:09:27;17.10;99.90
33207;DHT22;19565;46.602;11.534;2022-09-01T05:11:57;17.20;99.90
33207;DHT22;19565;46.602;11.534;2022-09-01T05:14:27;17.10;99.90
33207;DHT22;19565;46.602;11.534;2022-09-01T05:16:56;17.00;99.90
33207;DHT22;19565;46.602;11.534;2022-09-01T05:19:26;17.00;99.90
33207;DHT22;19565;46.602;11.534;2022-09-01T05:21:56;16.90;99.90
33207;DHT22;19565;46.602;11.534;2022-09-01T05:24:27;17.00;99.90
33207;DHT22;19565;46.602;11.534;2022-09-01T05:26:58;17.20;99.90
33207;DHT22;19565;46.602;11.534;2022-09-01T05:29:27;16.80;99.90
33207;DHT22;19565;46.602;11.534;2022-09-01T05:31:55;16.40;99.90
33207;DHT22;19565;46.602;11.534;2022-09-01T05:34:26;16.40;99.90
33207;DHT22;19565;46.602;11.534;2022-09-01T05:36:59;16.60;99.90
33207;DHT22;19565;46.602;11.534;2022-09-01T05:39:27;16.80;99.90
33207;DHT22;19565;46.602;11.534;2022-09-01T05:41:57;17.00;99.90
33207;DHT22;19565;46.602;11.534;2022-09-01T05:44:25;17.00;99.90
33207;DHT22;19565;46.602;11.534;2022-09-01T05:46:53;17.10;99.90
33207;DHT22;19565;46.602;11.534;2022-09-01T05:49:26;17.20;99.90
33207;DHT22;19565;46.602;11.534;2022-09-01T05:51:57;16.90;99.90
33207;DHT22;19565;46.602;11.534;2022-09-01T05:54:25;16.70;99.90
33207;DHT22;19565;46.602;11.534;2022-09-01T05:56:56;16.60;99.90
33207;DHT22;19565;46.602;11.534;2022-09-01T05:59:45;16.60;99.90
33207;DHT22;19565;46.602;11.534;2022-09-01T06:02:20;16.80;99.90
33207;DHT22;19565;46.602;11.534;2022-09-01T06:04:50;16.90;99.90
33207;DHT22;19565;46.602;11.534;2022-09-01T06:07:20;17.10;99.90
33207;DHT22;19565;46.602;11.534;2022-09-01T06:09:51;17.00;99.90
33207;DHT22;19565;46.602;11.534;2022-09-01T06:12:19;17.00;99.90
33207;DHT22;19565;46.602;11.534;2022-09-01T06:14:51;16.90;99.90
33207;DHT22;19565;46.602;11.534;2022-09-01T06:17:21;16.80;99.90
33207;DHT22;19565;46.602;11.534;2022-09-01T06:19:54;16.80;99.90
33207;DHT22;19565;46.602;11.534;2022-09-01T06:22:24;17.00;99.90
33207;DHT22;19565;46.602;11.534;2022-09-01T06:24:52;17.00;99.90
33207;DHT22;19565;46.602;11.534;2022-09-01T06:27:28;17.00;99.90
33207;DHT22;19565;46.602;11.534;2022-09-01T06:29:56;17.00;99.90
33207;DHT22;19565;46.602;11.534;2022-09-01T06:32:24;17.30;99.90
33207;DHT22;19565;46.602;11.534;2022-09-01T06:34:54;17.10;99.90
33207;DHT22;19565;46.602;11.534;2022-09-01T06:37:24;16.90;99.90
33207;DHT22;19565;46.602;11.534;2022-09-01T06:39:54;17.10;99.90
33207;DHT22;19565;46.602;11.534;2022-09-01T06:42:23;17.00;99.90
33207;DHT22;19565;46.602;11.534;2022-09-01T06:44:51;17.20;99.90
33207;DHT22;19565;46.602;11.534;2022-09-01T06:47:20;17.20;99.90
33207;DHT22;19565;46.602;11.534;2022-09-01T06:49:48;17.20;99.90
33207;DHT22;19565;46.602;11.534;2022-09-01T06:52:24;17.00;99.90
33207;DHT22;19565;46.602;11.534;2022-09-01T06:54:54;17.20;99.90
33207;DHT22;19565;46.602;11.534;2022-09-01T06:57:23;17.20;99.90
33207;DHT22;19565;46.602;11.534;2022-09-01T07:00:13;17.20;99.90
33207;DHT22;19565;46.602;11.534;2022-09-01T07:02:46;17.20;99.90
33207;DHT22;19565;46.602;11.534;2022-09-01T07:05:15;17.10;99.90
33207;DHT22;19565;46.602;11.534;2022-09-01T07:08:06;17.20;99.90
33207;DHT22;19565;46.602;11.534;2022-09-01T07:10:41;17.40;99.90
33207;DHT22;19565;46.602;11.534;2022-09-01T07:13:31;17.50;99.90
33207;DHT22;19565;46.602;11.534;2022-09-01T07:16:01;17.60;99.90
33207;DHT22;19565;46.602;11.534;2022-09-01T07:18:50;17.60;99.90
33207;DHT22;19565;46.602;11.534;2022-09-01T07:21:27;17.70;99.90
33207;DHT22;19565;46.602;11.534;2022-09-01T07:24:19;17.70;99.90
33207;DHT22;19565;46.602;11.534;2022-09-01T07:26:47;17.90;99.90
33207;DHT22;19565;46.602;11.534;2022-09-01T07:29:18;18.00;99.90
33207;DHT22;19565;46.602;11.534;2022-09-01T07:31:49;18.10;99.90
33207;DHT22;19565;46.602;11.534;2022-09-01T07:34:41;18.10;99.90
33207;DHT22;19565;46.602;11.534;2022-09-01T07:37:14;18.20;99.90
33207;DHT22;19565;46.602;11.534;2022-09-01T07:40:12;18.30;99.90
33207;DHT22;19565;46.602;11.534;2022-09-01T07:43:13;18.50;99.90
33207;DHT22;19565;46.602;11.534;2022-09-01T07:45:43;18.40;99.90
33207;DHT22;19565;46.602;11.534;2022-09-01T07:48:26;18.50;99.80
33207;DHT22;19565;46.602;11.534;2022-09-01T07:51:15;18.60;99.90
33207;DHT22;19565;46.602;11.534;2022-09-01T07:54:03;18.60;99.80
33207;DHT22;19565;46.602;11.534;2022-09-01T07:56:33;18.70;99.70
33207;DHT22;19565;46.602;11.534;2022-09-01T07:59:06;18.70;99.10
33207;DHT22;19565;46.602;11.534;2022-09-01T08:01:41;18.70;98.80
33207;DHT22;19565;46.602;11.534;2022-09-01T08:04:09;18.80;98.90
33207;DHT22;19565;46.602;11.534;2022-09-01T08:06:37;18.80;98.60
33207;DHT22;19565;46.602;11.534;2022-09-01T08:09:09;18.80;98.20
33207;DHT22;19565;46.602;11.534;2022-09-01T08:11:58;18.80;98.30
33207;DHT22;19565;46.602;11.534;2022-09-01T08:14:28;18.90;98.60
33207;DHT22;19565;46.602;11.534;2022-09-01T08:17:01;19.00;98.70
33207;DHT22;19565;46.602;11.534;2022-09-01T08:19:49;19.10;98.50
33207;DHT22;19565;46.602;11.534;2022-09-01T08:22:19;19.10;98.50
33207;DHT22;19565;46.602;11.534;2022-09-01T08:24:50;19.20;98.10
33207;DHT22;19565;46.602;11.534;2022-09-01T08:27:19;19.20;97.80
33207;DHT22;19565;46.602;11.534;2022-09-01T08:29:48;19.30;97.60
33207;DHT22;19565;46.602;11.534;2022-09-01T08:32:16;19.40;97.70
33207;DHT22;19565;46.602;11.534;2022-09-01T08:34:46;19.50;98.00
33207;DHT22;19565;46.602;11.534;2022-09-01T08:37:14;19.60;97.80
33207;DHT22;19565;46.602;11.534;2022-09-01T08:39:42;19.60;97.80
33207;DHT22;19565;46.602;11.534;2022-09-01T08:42:23;19.70;97.30
33207;DHT22;19565;46.602;11.534;2022-09-01T08:45:03;19.70;97.40
33207;DHT22;19565;46.602;11.534;2022-09-01T08:47:34;19.80;97.20
33207;DHT22;19565;46.602;11.534;2022-09-01T08:50:22;19.90;96.60
33207;DHT22;19565;46.602;11.534;2022-09-01T08:52:55;20.00;96.10
33207;DHT22;19565;46.602;11.534;2022-09-01T08:55:38;20.00;95.50
33207;DHT22;19565;46.602;11.534;2022-09-01T08:58:13;20.10;95.50
33207;DHT22;19565;46.602;11.534;2022-09-01T09:00:45;20.20;94.50
33207;DHT22;19565;46.602;11.534;2022-09-01T09:03:28;20.30;94.60
33207;DHT22;19565;46.602;11.534;2022-09-01T09:06:12;20.40;94.80
33207;DHT22;19565;46.602;11.534;2022-09-01T09:08:51;20.50;93.70
33207;DHT22;19565;46.602;11.534;2022-09-01T09:11:49;20.60;93.10
33207;DHT22;19565;46.602;11.534;2022-09-01T09:14:35;20.70;92.90
33207;DHT22;19565;46.602;11.534;2022-09-01T09:17:04;20.80;92.10
33207;DHT22;19565;46.602;11.534;2022-09-01T09:19:36;20.90;91.60
33207;DHT22;19565;46.602;11.534;2022-09-01T09:22:07;21.10;89.00
33207;DHT22;19565;46.602;11.534;2022-09-01T09:24:41;21.30;87.10
33207;DHT22;19565;46.602;11.534;2022-09-01T09:27:19;21.40;86.00
33207;DHT22;19565;46.602;11.534;2022-09-01T09:29:50;21.60;83.90
33207;DHT22;19565;46.602;11.534;2022-09-01T09:32:19;21.70;83.40
33207;DHT22;19565;46.602;11.534;2022-09-01T09:34:53;21.80;83.40
33207;DHT22;19565;46.602;11.534;2022-09-01T09:37:25;21.80;82.20
33207;DHT22;19565;46.602;11.534;2022-09-01T09:40:19;22.00;82.90
33207;DHT22;19565;46.602;11.534;2022-09-01T09:43:03;22.10;82.60
33207;DHT22;19565;46.602;11.534;2022-09-01T09:45:35;22.20;81.90
33207;DHT22;19565;46.602;11.534;2022-09-01T09:48:09;22.30;81.60
33207;DHT22;19565;46.602;11.534;2022-09-01T09:50:39;22.40;79.20
33207;DHT22;19565;46.602;11.534;2022-09-01T09:53:15;22.50;76.70
33207;DHT22;19565;46.602;11.534;2022-09-01T09:55:54;22.60;76.20
33207;DHT22;19565;46.602;11.534;2022-09-01T09:58:27;22.70;77.20
33207;DHT22;19565;46.602;11.534;2022-09-01T10:01:07;22.80;76.40
33207;DHT22;19565;46.602;11.534;2022-09-01T10:03:40;22.90;75.10
33207;DHT22;19565;46.602;11.534;2022-09-01T10:06:15;23.10;73.90
33207;DHT22;19565;46.602;11.534;2022-09-01T10:08:56;23.10;73.30
33207;DHT22;19565;46.602;11.534;2022-09-01T10:11:28;23.30;70.10
33207;DHT22;19565;46.602;11.534;2022-09-01T10:14:05;23.30;71.00
33207;DHT22;19565;46.602;11.534;2022-09-01T10:16:37;23.40;68.90
33207;DHT22;19565;46.602;11.534;2022-09-01T10:19:07;23.50;68.60
33207;DHT22;19565;46.602;11.534;2022-09-01T10:21:44;23.50;69.30
33207;DHT22;19565;46.602;11.534;2022-09-01T10:24:17;23.60;68.50
33207;DHT22;19565;46.602;11.534;2022-09-01T10:26:55;23.70;68.90
33207;DHT22;19565;46.602;11.534;2022-09-01T10:29:28;23.70;67.50
33207;DHT22;19565;46.602;11.534;2022-09-01T10:32:07;23.70;67.90
33207;DHT22;19565;46.602;11.534;2022-09-01T10:34:56;23.80;65.80
33207;DHT22;19565;46.602;11.534;2022-09-01T10:37:26;23.80;65.30
33207;DHT22;19565;46.602;11.534;2022-09-01T10:40:11;23.80;64.10
33207;DHT22;19565;46.602;11.534;2022-09-01T10:42:40;23.80;63.50
33207;DHT22;19565;46.602;11.534;2022-09-01T10:45:19;23.80;65.20
33207;DHT22;19565;46.602;11.534;2022-09-01T10:48:21;23.80;64.90
33207;DHT22;19565;46.602;11.534;2022-09-01T10:51:40;23.80;65.90
33207;DHT22;19565;46.602;11.534;2022-09-01T10:57:41;23.90;64.60
33207;DHT22;19565;46.602;11.534;2022-09-01T11:00:44;24.00;63.80
33207;DHT22;19565;46.602;11.534;2022-09-01T11:06:57;24.10;62.70
33207;DHT22;19565;46.602;11.534;2022-09-01T11:10:08;24.10;63.20
33207;DHT22;19565;46.602;11.534;2022-09-01T11:16:25;24.20;59.50
33207;DHT22;19565;46.602;11.534;2022-09-01T11:19:31;24.30;60.00
33207;DHT22;19565;46.602;11.534;2022-09-01T11:22:13;24.40;60.00
33207;DHT22;19565;46.602;11.534;2022-09-01T11:24:55;24.40;59.40
33207;DHT22;19565;46.602;11.534;2022-09-01T11:27:58;24.50;59.50
33207;DHT22;19565;46.602;11.534;2022-09-01T11:30:42;24.50;60.10
33207;DHT22;19565;46.602;11.534;2022-09-01T11:33:41;24.50;58.80
33207;DHT22;19565;46.602;11.534;2022-09-01T11:36:23;24.50;59.40
33207;DHT22;19565;46.602;11.534;2022-09-01T11:39:04;24.50;58.80
33207;DHT22;19565;46.602;11.534;2022-09-01T11:41:43;24.50;59.80
33207;DHT22;19565;46.602;11.534;2022-09-01T11:44:23;24.50;59.30
33207;DHT22;19565;46.602;11.534;2022-09-01T11:46:56;24.60;59.20
33207;DHT22;19565;46.602;11.534;2022-09-01T11:49:29;24.60;59.60
33207;DHT22;19565;46.602;11.534;2022-09-01T11:52:00;24.60;59.20
33207;DHT22;19565;46.602;11.534;2022-09-01T11:54:36;24.60;58.70
33207;DHT22;19565;46.602;11.534;2022-09-01T11:57:23;24.70;59.30
33207;DHT22;19565;46.602;11.534;2022-09-01T11:59:52;24.70;58.00
33207;DHT22;19565;46.602;11.534;2022-09-01T12:02:22;24.70;58.30
33207;DHT22;19565;46.602;11.534;2022-09-01T12:04:51;24.80;57.50
33207;DHT22;19565;46.602;11.534;2022-09-01T12:07:35;24.80;57.50
33207;DHT22;19565;46.602;11.534;2022-09-01T12:10:14;24.80;56.30
33207;DHT22;19565;46.602;11.534;2022-09-01T12:12:44;24.80;57.30
33207;DHT22;19565;46.602;11.534;2022-09-01T12:15:19;24.80;56.40
33207;DHT22;19565;46.602;11.534;2022-09-01T12:17:50;24.80;57.30
33207;DHT22;19565;46.602;11.534;2022-09-01T12:20:21;24.80;55.50
33207;DHT22;19565;46.602;11.534;2022-09-01T12:22:57;24.90;55.90
33207;DHT22;19565;46.602;11.534;2022-09-01T12:25:29;24.90;54.60
33207;DHT22;19565;46.602;11.534;2022-09-01T12:28:00;24.90;55.30
33207;DHT22;19565;46.602;11.534;2022-09-01T12:30:28;25.00;55.10
33207;DHT22;19565;46.602;11.534;2022-09-01T12:33:02;25.00;54.80
33207;DHT22;19565;46.602;11.534;2022-09-01T12:35:49;25.00;53.50
33207;DHT22;19565;46.602;11.534;2022-09-01T12:38:29;25.00;53.80
33207;DHT22;19565;46.602;11.534;2022-09-01T12:40:57;25.00;53.90
33207;DHT22;19565;46.602;11.534;2022-09-01T12:43:34;25.00;53.80
33207;DHT22;19565;46.602;11.534;2022-09-01T12:46:04;25.10;54.10
33207;DHT22;19565;46.602;11.534;2022-09-01T12:48:33;25.20;53.50
33207;DHT22;19565;46.602;11.534;2022-09-01T12:51:17;25.20;53.00
33207;DHT22;19565;46.602;11.534;2022-09-01T12:53:55;25.20;52.90
33207;DHT22;19565;46.602;11.534;2022-09-01T12:56:29;25.20;53.30
33207;DHT22;19565;46.602;11.534;2022-09-01T12:59:07;25.30;52.10
33207;DHT22;19565;46.602;11.534;2022-09-01T13:01:43;25.30;52.70
33207;DHT22;19565;46.602;11.534;2022-09-01T13:04:24;25.30;52.60
33207;DHT22;19565;46.602;11.534;2022-09-01T13:06:55;25.30;53.50
33207;DHT22;19565;46.602;11.534;2022-09-01T13:09:25;25.20;53.10
33207;DHT22;19565;46.602;11.534;2022-09-01T13:12:00;25.30;53.20
33207;DHT22;19565;46.602;11.534;2022-09-01T13:14:35;25.20;53.50
33207;DHT22;19565;46.602;11.534;2022-09-01T13:17:03;25.20;53.50
33207;DHT22;19565;46.602;11.534;2022-09-01T13:19:40;25.20;52.50
33207;DHT22;19565;46.602;11.534;2022-09-01T13:22:08;25.10;53.10
33207;DHT22;19565;46.602;11.534;2022-09-01T13:24:38;25.20;52.20
33207;DHT22;19565;46.602;11.534;2022-09-01T13:27:06;25.30;52.60
33207;DHT22;19565;46.602;11.534;2022-09-01T13:29:50;25.40;50.60
33207;DHT22;19565;46.602;11.534;2022-09-01T13:32:20;25.50;50.90
33207;DHT22;19565;46.602;11.534;2022-09-01T13:34:51;25.50;50.80
33207;DHT22;19565;46.602;11.534;2022-09-01T13:37:21;25.50;51.00
33207;DHT22;19565;46.602;11.534;2022-09-01T13:39:50;25.50;51.20
33207;DHT22;19565;46.602;11.534;2022-09-01T13:42:19;25.50;52.90
33207;DHT22;19565;46.602;11.534;2022-09-01T13:44:47;25.50;52.90
33207;DHT22;19565;46.602;11.534;2022-09-01T13:47:21;25.50;53.20
33207;DHT22;19565;46.602;11.534;2022-09-01T13:49:57;25.50;52.80
33207;DHT22;19565;46.602;11.534;2022-09-01T13:52:36;25.50;54.70
33207;DHT22;19565;46.602;11.534;2022-09-01T13:55:08;25.40;53.10
33207;DHT22;19565;46.602;11.534;2022-09-01T13:57:36;25.40;54.00
33207;DHT22;19565;46.602;11.534;2022-09-01T14:00:07;25.30;53.10
33207;DHT22;19565;46.602;11.534;2022-09-01T14:02:38;25.30;53.00
33207;DHT22;19565;46.602;11.534;2022-09-01T14:05:07;25.30;53.20
33207;DHT22;19565;46.602;11.534;2022-09-01T14:07:35;25.30;52.80
33207;DHT22;19565;46.602;11.534;2022-09-01T14:10:06;25.30;52.90
33207;DHT22;19565;46.602;11.534;2022-09-01T14:12:35;25.30;52.20
33207;DHT22;19565;46.602;11.534;2022-09-01T14:15:04;25.30;52.30
33207;DHT22;19565;46.602;11.534;2022-09-01T14:17:39;25.30;51.50
33207;DHT22;19565;46.602;11.534;2022-09-01T14:20:11;25.30;51.40
33207;DHT22;19565;46.602;11.534;2022-09-01T14:22:40;25.20;51.60
33207;DHT22;19565;46.602;11.534;2022-09-01T14:25:10;25.20;51.70
33207;DHT22;19565;46.602;11.534;2022-09-01T14:27:38;25.20;51.90
33207;DHT22;19565;46.602;11.534;2022-09-01T14:30:08;25.10;51.30
33207;DHT22;19565;46.602;11.534;2022-09-01T14:32:37;25.10;52.00
33207;DHT22;19565;46.602;11.534;2022-09-01T14:35:06;25.10;52.90
33207;DHT22;19565;46.602;11.534;2022-09-01T14:37:36;25.10;53.40
33207;DHT22;19565;46.602;11.534;2022-09-01T14:40:06;25.10;55.60
33207;DHT22;19565;46.602;11.534;2022-09-01T14:42:44;25.00;53.80
33207;DHT22;19565;46.602;11.534;2022-09-01T14:45:16;25.00;56.00
33207;DHT22;19565;46.602;11.534;2022-09-01T14:47:45;24.90;55.10
33207;DHT22;19565;46.602;11.534;2022-09-01T14:50:14;24.80;52.90
33207;DHT22;19565;46.602;11.534;2022-09-01T14:52:50;24.80;54.40
33207;DHT22;19565;46.602;11.534;2022-09-01T14:55:20;24.80;53.10
33207;DHT22;19565;46.602;11.534;2022-09-01T14:57:50;24.80;53.60
33207;DHT22;19565;46.602;11.534;2022-09-01T15:00:18;24.70;54.40
33207;DHT22;19565;46.602;11.534;2022-09-01T15:02:47;24.70;56.00
33207;DHT22;19565;46.602;11.534;2022-09-01T15:05:15;24.60;57.30
33207;DHT22;19565;46.602;11.534;2022-09-01T15:07:43;24.60;57.60
33207;DHT22;19565;46.602;11.534;2022-09-01T15:10:14;24.60;58.10
33207;DHT22;19565;46.602;11.534;2022-09-01T15:12:53;24.50;57.50
33207;DHT22;19565;46.602;11.534;2022-09-01T15:15:21;24.50;59.00
33207;DHT22;19565;46.602;11.534;2022-09-01T15:17:50;24.40;61.50
33207;DHT22;19565;46.602;11.534;2022-09-01T15:20:19;24.40;61.10
33207;DHT22;19565;46.602;11.534;2022-09-01T15:23:05;24.40;61.60
33207;DHT22;19565;46.602;11.534;2022-09-01T15:25:34;24.40;64.30
33207;DHT22;19565;46.602;11.534;2022-09-01T15:28:04;24.30;62.30
33207;DHT22;19565;46.602;11.534;2022-09-01T15:30:33;24.30;63.00
33207;DHT22;19565;46.602;11.534;2022-09-01T15:33:04;24.30;64.30
33207;DHT22;19565;46.602;11.534;2022-09-01T15:35:32;24.20;66.90
33207;DHT22;19565;46.602;11.534;2022-09-01T15:38:01;24.20;69.00
33207;DHT22;19565;46.602;11.534;2022-09-01T15:40:29;24.20;68.20
33207;DHT22;19565;46.602;11.534;2022-09-01T15:42:57;24.10;69.10
33207;DHT22;19565;46.602;11.534;2022-09-01T15:45:28;24.10;69.20
33207;DHT22;19565;46.602;11.534;2022-09-01T15:47:56;24.10;69.90
33207;DHT22;19565;46.602;11.534;2022-09-01T15:50:25;24.00;70.90
33207;DHT22;19565;46.602;11.534;2022-09-01T15:52:55;24.00;71.70
33207;DHT22;19565;46.602;11.534;2022-09-01T15:55:26;24.00;72.10
33207;DHT22;19565;46.602;11.534;2022-09-01T15:57:55;24.00;71.90
33207;DHT22;19565;46.602;11.534;2022-09-01T16:00:25;24.00;72.60
33207;DHT22;19565;46.602;11.534;2022-09-01T16:02:55;23.90;73.60